sensor_id;sensor_type;location;lat;lon;timestamp;pressure;altitude;pressure_sealevel;temperature;humidity
40872;BME280;26591;43.264;26.940;2022-07-17T00:00:41;99099.91;;;24.61;61.02
40872;BME280;26591;43.264;26.940;2022-07-17T00:03:15;99103.19;;;24.95;60.46
40872;BME280;26591;43.264;26.940;2022-07-17T00:05:42;99108.19;;;25.14;60.78
40872;BME280;26591;43.264;26.940;2022-07-17T00:08:09;99102.38;;;25.33;59.17
40872;BME280;26591;43.264;26.940;2022-07-17T00:10:39;99108.72;;;25.54;59.31
40872;BME280;26591;43.264;26.940;2022-07-17T00:13:05;99101.19;;;25.66;58.11
40872;BME280;26591;43.264;26.940;2022-07-17T00:15:30;99102.31;;;25.75;57.69
40872;BME280;26591;43.264;26.940;2022-07-17T00:17:56;99104.50;;;25.79;57.87
40872;BME280;26591;43.264;26.940;2022-07-17T00:20:22;99102.91;;;25.88;57.65
40872;BME280;26591;43.264;26.940;2022-07-17T00:22:51;99105.09;;;25.96;57.01
40872;BME280;26591;43.264;26.940;2022-07-17T00:25:17;99106.16;;;25.90;57.62
40872;BME280;26591;43.264;26.940;2022-07-17T00:27:42;99112.91;;;25.77;57.89
40872;BME280;26591;43.264;26.940;2022-07-17T00:30:08;99118.31;;;25.82;58.35
40872;BME280;26591;43.264;26.940;2022-07-17T00:32:34;99106.91;;;25.70;58.64
40872;BME280;26591;43.264;26.940;2022-07-17T00:35:00;99109.53;;;25.54;58.41
40872;BME280;26591;43.264;26.940;2022-07-17T00:37:26;99102.56;;;25.64;58.77
40872;BME280;26591;43.264;26.940;2022-07-17T00:39:51;99107.19;;;25.79;58.58
40872;BME280;26591;43.264;26.940;2022-07-17T00:42:17;99100.72;;;25.90;57.87
40872;BME280;26591;43.264;26.940;2022-07-17T00:44:44;99101.31;;;25.97;57.46
40872;BME280;26591;43.264;26.940;2022-07-17T00:49:37;99103.50;;;26.05;57.74
40872;BME280;26591;43.264;26.940;2022-07-17T00:52:03;99102.69;;;26.05;57.17
40872;BME280;26591;43.264;26.940;2022-07-17T00:54:29;99104.28;;;26.01;57.45
40872;BME280;26591;43.264;26.940;2022-07-17T00:56:56;99107.28;;;26.04;57.73
40872;BME280;26591;43.264;26.940;2022-07-17T00:59:24;99104.59;;;26.10;57.02
40872;BME280;26591;43.264;26.940;2022-07-17T01:01:50;99102.16;;;26.08;57.40
40872;BME280;26591;43.264;26.940;2022-07-17T01:04:16;99104.56;;;25.99;57.54
40872;BME280;26591;43.264;26.940;2022-07-17T01:06:41;99102.38;;;25.91;57.95
40872;BME280;26591;43.264;26.940;2022-07-17T01:09:10;99102.28;;;25.65;57.90
40872;BME280;26591;43.264;26.940;2022-07-17T01:11:36;99103.16;;;25.33;59.01
40872;BME280;26591;43.264;26.940;2022-07-17T01:14:02;99102.41;;;25.00;60.95
40872;BME280;26591;43.264;26.940;2022-07-17T01:16:28;99102.16;;;25.02;60.71
40872;BME280;26591;43.264;26.940;2022-07-17T01:18:55;99105.66;;;24.97;60.68
40872;BME280;26591;43.264;26.940;2022-07-17T01:21:21;99101.56;;;24.94;60.34
40872;BME280;26591;43.264;26.940;2022-07-17T01:23:47;99100.13;;;24.81;61.45
40872;BME280;26591;43.264;26.940;2022-07-17T01:26:12;99099.00;;;24.77;60.92
40872;BME280;26591;43.264;26.940;2022-07-17T01:28:38;99105.59;;;24.32;62.25
40872;BME280;26591;43.264;26.940;2022-07-17T01:31:03;99107.84;;;24.40;62.43
40872;BME280;26591;43.264;26.940;2022-07-17T01:33:29;99108.38;;;24.37;62.09
40872;BME280;26591;43.264;26.940;2022-07-17T01:35:55;99106.06;;;24.23;63.10
40872;BME280;26591;43.264;26.940;2022-07-17T01:38:20;99098.84;;;23.85;63.50
40872;BME280;26591;43.264;26.940;2022-07-17T01:40:46;99103.59;;;23.55;64.20
40872;BME280;26591;43.264;26.940;2022-07-17T01:43:12;99098.66;;;23.69;64.41
40872;BME280;26591;43.264;26.940;2022-07-17T01:45:37;99099.91;;;23.61;64.56
40872;BME280;26591;43.264;26.940;2022-07-17T01:48:03;99102.41;;;23.46;64.51
40872;BME280;26591;43.264;26.940;2022-07-17T01:50:29;99106.88;;;23.57;63.75
40872;BME280;26591;43.264;26.940;2022-07-17T01:52:54;99104.00;;;23.64;62.92
40872;BME280;26591;43.264;26.940;2022-07-17T01:55:20;99097.91;;;23.74;62.48
40872;BME280;26591;43.264;26.940;2022-07-17T01:57:45;99103.25;;;23.69;62.31
40872;BME280;26591;43.264;26.940;2022-07-17T02:00:15;99112.00;;;23.76;62.16
40872;BME280;26591;43.264;26.940;2022-07-17T02:02:42;99099.47;;;23.70;62.47
40872;BME280;26591;43.264;26.940;2022-07-17T02:05:08;99096.34;;;23.78;62.31
40872;BME280;26591;43.264;26.940;2022-07-17T02:07:34;99102.44;;;23.90;62.05
40872;BME280;26591;43.264;26.940;2022-07-17T02:10:00;99106.28;;;23.95;61.78
40872;BME280;26591;43.264;26.940;2022-07-17T02:12:26;99110.19;;;24.04;60.69
40872;BME280;26591;43.264;26.940;2022-07-17T02:14:51;99104.88;;;23.92;60.64
40872;BME280;26591;43.264;26.940;2022-07-17T02:17:17;99108.47;;;23.98;61.58
40872;BME280;26591;43.264;26.940;2022-07-17T02:19:42;99104.44;;;23.78;60.54
40872;BME280;26591;43.264;26.940;2022-07-17T02:22:08;99106.13;;;23.84;60.77
40872;BME280;26591;43.264;26.940;2022-07-17T02:24:34;99105.59;;;23.82;60.70
40872;BME280;26591;43.264;26.940;2022-07-17T02:26:59;99099.72;;;23.68;60.43
40872;BME280;26591;43.264;26.940;2022-07-17T02:29:25;99103.88;;;23.76;60.70
40872;BME280;26591;43.264;26.940;2022-07-17T02:31:50;99107.41;;;23.99;60.36
40872;BME280;26591;43.264;26.940;2022-07-17T02:34:16;99103.75;;;23.66;62.24
40872;BME280;26591;43.264;26.940;2022-07-17T02:36:41;99115.44;;;23.49;63.14
40872;BME280;26591;43.264;26.940;2022-07-17T02:39:06;99112.69;;;22.76;66.40
40872;BME280;26591;43.264;26.940;2022-07-17T02:42:09;99123.63;;;21.70;70.25
40872;BME280;26591;43.264;26.940;2022-07-17T02:44:35;99126.44;;;21.75;71.23
40872;BME280;26591;43.264;26.940;2022-07-17T02:47:00;99123.97;;;21.74;70.99
40872;BME280;26591;43.264;26.940;2022-07-17T02:49:25;99123.97;;;21.74;71.41
40872;BME280;26591;43.264;26.940;2022-07-17T02:51:51;99137.81;;;22.06;70.19
40872;BME280;26591;43.264;26.940;2022-07-17T02:54:16;99126.56;;;22.09;69.93
40872;BME280;26591;43.264;26.940;2022-07-17T02:56:42;99127.00;;;21.89;69.75
40872;BME280;26591;43.264;26.940;2022-07-17T02:59:07;99133.38;;;22.12;69.39
40872;BME280;26591;43.264;26.940;2022-07-17T03:01:33;99130.78;;;22.46;68.22
40872;BME280;26591;43.264;26.940;2022-07-17T03:03:58;99126.97;;;22.76;67.74
40872;BME280;26591;43.264;26.940;2022-07-17T03:06:24;99126.66;;;22.90;66.48
40872;BME280;26591;43.264;26.940;2022-07-17T03:08:49;99131.03;;;23.25;65.11
40872;BME280;26591;43.264;26.940;2022-07-17T03:11:15;99127.13;;;23.55;64.61
40872;BME280;26591;43.264;26.940;2022-07-17T03:13:41;99124.84;;;23.69;63.12
40872;BME280;26591;43.264;26.940;2022-07-17T03:16:06;99125.88;;;23.85;62.85
40872;BME280;26591;43.264;26.940;2022-07-17T03:18:32;99115.94;;;23.90;62.44
40872;BME280;26591;43.264;26.940;2022-07-17T03:20:58;99124.28;;;24.33;61.52
40872;BME280;26591;43.264;26.940;2022-07-17T03:23:30;99120.78;;;24.93;59.58
40872;BME280;26591;43.264;26.940;2022-07-17T03:25:56;99124.25;;;25.26;59.09
40872;BME280;26591;43.264;26.940;2022-07-17T03:28:22;99131.09;;;25.92;58.16
40872;BME280;26591;43.264;26.940;2022-07-17T03:30:47;99132.88;;;26.34;56.84
40872;BME280;26591;43.264;26.940;2022-07-17T03:33:13;99134.31;;;26.78;54.20
40872;BME280;26591;43.264;26.940;2022-07-17T03:35:38;99146.78;;;26.54;53.42
40872;BME280;26591;43.264;26.940;2022-07-17T03:38:04;99145.94;;;26.53;54.24
40872;BME280;26591;43.264;26.940;2022-07-17T03:40:29;99144.34;;;26.93;53.00
40872;BME280;26591;43.264;26.940;2022-07-17T03:42:55;99151.97;;;27.17;52.58
40872;BME280;26591;43.264;26.940;2022-07-17T03:45:20;99149.38;;;27.83;48.87
40872;BME280;26591;43.264;26.940;2022-07-17T03:47:46;99149.28;;;28.14;47.21
40872;BME280;26591;43.264;26.940;2022-07-17T03:50:11;99149.44;;;27.67;45.79
40872;BME280;26591;43.264;26.940;2022-07-17T03:52:37;99150.06;;;27.18;46.23
40872;BME280;26591;43.264;26.940;2022-07-17T03:55:03;99151.06;;;27.63;45.84
40872;BME280;26591;43.264;26.940;2022-07-17T03:57:28;99158.28;;;28.04;44.36
40872;BME280;26591;43.264;26.940;2022-07-17T04:00:31;99154.84;;;27.72;44.07
40872;BME280;26591;43.264;26.940;2022-07-17T04:02:56;99169.50;;;27.82;44.37
40872;BME280;26591;43.264;26.940;2022-07-17T04:05:22;99165.69;;;28.43;42.85
40872;BME280;26591;43.264;26.940;2022-07-17T04:07:47;99182.50;;;28.56;42.90
40872;BME280;26591;43.264;26.940;2022-07-17T04:10:14;99182.81;;;28.94;42.18
40872;BME280;26591;43.264;26.940;2022-07-17T04:12:40;99173.91;;;28.83;41.77
40872;BME280;26591;43.264;26.940;2022-07-17T04:15:06;99181.25;;;28.83;41.38
40872;BME280;26591;43.264;26.940;2022-07-17T04:17:32;99186.91;;;29.56;40.61
40872;BME280;26591;43.264;26.940;2022-07-17T04:19:58;99189.81;;;29.89;40.17
40872;BME280;26591;43.264;26.940;2022-07-17T04:22:23;99188.38;;;29.43;41.33
40872;BME280;26591;43.264;26.940;2022-07-17T04:24:50;99183.81;;;28.63;41.91
40872;BME280;26591;43.264;26.940;2022-07-17T04:27:15;99182.06;;;28.83;40.77
40872;BME280;26591;43.264;26.940;2022-07-17T04:29:41;99185.09;;;28.82;40.58
40872;BME280;26591;43.264;26.940;2022-07-17T04:32:07;99187.16;;;29.24;40.51
40872;BME280;26591;43.264;26.940;2022-07-17T04:34:33;99193.19;;;29.21;40.05
40872;BME280;26591;43.264;26.940;2022-07-17T04:37:00;99191.19;;;29.86;39.42
40872;BME280;26591;43.264;26.940;2022-07-17T04:39:27;99186.09;;;30.04;39.07
40872;BME280;26591;43.264;26.940;2022-07-17T04:41:52;99193.88;;;30.35;37.84
40872;BME280;26591;43.264;26.940;2022-07-17T04:44:18;99193.88;;;30.54;37.87
40872;BME280;26591;43.264;26.940;2022-07-17T04:46:44;99201.78;;;30.36;38.02
40872;BME280;26591;43.264;26.940;2022-07-17T04:49:10;99199.88;;;30.37;38.01
40872;BME280;26591;43.264;26.940;2022-07-17T04:51:36;99204.25;;;30.57;38.18
40872;BME280;26591;43.264;26.940;2022-07-17T04:54:01;99197.59;;;30.01;38.23
40872;BME280;26591;43.264;26.940;2022-07-17T04:56:27;99202.44;;;29.55;38.80
40872;BME280;26591;43.264;26.940;2022-07-17T04:58:53;99203.13;;;29.66;38.42
40872;BME280;26591;43.264;26.940;2022-07-17T05:01:18;99207.13;;;30.03;38.37
40872;BME280;26591;43.264;26.940;2022-07-17T05:03:44;99195.03;;;29.61;37.69
40872;BME280;26591;43.264;26.940;2022-07-17T05:06:10;99204.94;;;29.76;38.32
40872;BME280;26591;43.264;26.940;2022-07-17T05:08:35;99205.16;;;30.09;38.06
40872;BME280;26591;43.264;26.940;2022-07-17T05:11:01;99210.97;;;29.48;39.00
40872;BME280;26591;43.264;26.940;2022-07-17T05:13:26;99209.09;;;29.44;38.71
40872;BME280;26591;43.264;26.940;2022-07-17T05:16:29;99219.53;;;29.36;39.19
40872;BME280;26591;43.264;26.940;2022-07-17T05:18:55;99215.03;;;29.51;38.29
40872;BME280;26591;43.264;26.940;2022-07-17T05:21:20;99226.06;;;29.89;38.30
40872;BME280;26591;43.264;26.940;2022-07-17T05:23:46;99225.44;;;29.44;39.09
40872;BME280;26591;43.264;26.940;2022-07-17T05:26:11;99227.47;;;29.28;39.28
40872;BME280;26591;43.264;26.940;2022-07-17T05:28:37;99233.28;;;29.50;38.75
40872;BME280;26591;43.264;26.940;2022-07-17T05:31:03;99232.09;;;29.27;39.36
40872;BME280;26591;43.264;26.940;2022-07-17T05:33:28;99230.84;;;29.49;39.42
40872;BME280;26591;43.264;26.940;2022-07-17T05:35:54;99228.47;;;29.07;39.47
40872;BME280;26591;43.264;26.940;2022-07-17T05:38:19;99234.34;;;29.20;40.16
40872;BME280;26591;43.264;26.940;2022-07-17T05:40:45;99233.16;;;29.36;39.34
40872;BME280;26591;43.264;26.940;2022-07-17T05:43:11;99245.09;;;29.99;39.59
40872;BME280;26591;43.264;26.940;2022-07-17T05:45:36;99253.75;;;30.50;38.36
40872;BME280;26591;43.264;26.940;2022-07-17T05:48:05;99249.06;;;30.94;37.56
40872;BME280;26591;43.264;26.940;2022-07-17T05:50:31;99256.50;;;31.74;36.60
40872;BME280;26591;43.264;26.940;2022-07-17T05:52:57;99255.91;;;32.05;36.24
40872;BME280;26591;43.264;26.940;2022-07-17T05:55:22;99260.69;;;32.13;35.26
40872;BME280;26591;43.264;26.940;2022-07-17T05:57:48;99261.50;;;32.14;35.21
40872;BME280;26591;43.264;26.940;2022-07-17T06:00:14;99260.13;;;32.67;35.01
40872;BME280;26591;43.264;26.940;2022-07-17T06:02:39;99266.25;;;32.08;35.45
40872;BME280;26591;43.264;26.940;2022-07-17T06:05:05;99265.13;;;32.23;35.85
40872;BME280;26591;43.264;26.940;2022-07-17T06:07:30;99272.06;;;32.34;34.93
40872;BME280;26591;43.264;26.940;2022-07-17T06:09:56;99263.63;;;32.17;35.67
40872;BME280;26591;43.264;26.940;2022-07-17T06:12:21;99267.31;;;32.77;34.66
40872;BME280;26591;43.264;26.940;2022-07-17T06:14:47;99268.03;;;33.28;34.15
40872;BME280;26591;43.264;26.940;2022-07-17T06:17:12;99268.09;;;33.59;33.25
40872;BME280;26591;43.264;26.940;2022-07-17T06:19:39;99272.50;;;33.38;33.27
40872;BME280;26591;43.264;26.940;2022-07-17T06:22:04;99273.94;;;32.98;33.91
40872;BME280;26591;43.264;26.940;2022-07-17T06:24:30;99271.97;;;33.58;34.25
40872;BME280;26591;43.264;26.940;2022-07-17T06:26:55;99276.28;;;33.82;32.80
40872;BME280;26591;43.264;26.940;2022-07-17T06:29:37;99270.78;;;33.05;34.56
40872;BME280;26591;43.264;26.940;2022-07-17T06:32:02;99274.09;;;32.93;34.70
40872;BME280;26591;43.264;26.940;2022-07-17T06:34:28;99277.00;;;32.97;34.92
40872;BME280;26591;43.264;26.940;2022-07-17T06:36:53;99268.03;;;32.68;35.53
40872;BME280;26591;43.264;26.940;2022-07-17T06:39:19;99280.16;;;33.81;33.82
40872;BME280;26591;43.264;26.940;2022-07-17T06:41:44;99278.44;;;33.94;33.27
40872;BME280;26591;43.264;26.940;2022-07-17T06:44:10;99275.19;;;33.92;33.23
40872;BME280;26591;43.264;26.940;2022-07-17T06:46:35;99278.34;;;33.76;33.56
40872;BME280;26591;43.264;26.940;2022-07-17T06:49:01;99270.28;;;33.48;34.70
40872;BME280;26591;43.264;26.940;2022-07-17T06:51:26;99288.69;;;33.48;34.15
40872;BME280;26591;43.264;26.940;2022-07-17T06:53:52;99285.38;;;33.37;34.17
40872;BME280;26591;43.264;26.940;2022-07-17T06:56:17;99280.06;;;33.63;34.63
40872;BME280;26591;43.264;26.940;2022-07-17T06:58:43;99284.81;;;33.81;34.09
40872;BME280;26591;43.264;26.940;2022-07-17T07:01:09;99288.97;;;34.01;33.40
40872;BME280;26591;43.264;26.940;2022-07-17T07:03:34;99291.56;;;34.55;33.11
40872;BME280;26591;43.264;26.940;2022-07-17T07:06:00;99293.53;;;34.55;33.02
40872;BME280;26591;43.264;26.940;2022-07-17T07:08:26;99294.66;;;34.71;32.09
40872;BME280;26591;43.264;26.940;2022-07-17T07:10:52;99297.72;;;34.61;32.73
40872;BME280;26591;43.264;26.940;2022-07-17T07:13:20;99290.28;;;34.12;32.68
40872;BME280;26591;43.264;26.940;2022-07-17T07:15:46;99292.38;;;33.75;34.19
40872;BME280;26591;43.264;26.940;2022-07-17T07:18:11;99301.63;;;34.19;33.36
40872;BME280;26591;43.264;26.940;2022-07-17T07:20:37;99295.91;;;34.47;33.66
40872;BME280;26591;43.264;26.940;2022-07-17T07:23:03;99301.03;;;34.98;32.69
40872;BME280;26591;43.264;26.940;2022-07-17T07:25:28;99294.69;;;35.06;32.50
40872;BME280;26591;43.264;26.940;2022-07-17T07:27:54;99288.84;;;34.64;32.93
40872;BME280;26591;43.264;26.940;2022-07-17T07:30:19;99294.91;;;33.94;33.47
40872;BME280;26591;43.264;26.940;2022-07-17T07:32:45;99277.72;;;34.11;33.03
40872;BME280;26591;43.264;26.940;2022-07-17T07:35:10;99283.41;;;34.23;33.12
40872;BME280;26591;43.264;26.940;2022-07-17T07:37:37;99297.69;;;34.03;33.58
40872;BME280;26591;43.264;26.940;2022-07-17T07:40:03;99289.41;;;33.62;34.12
40872;BME280;26591;43.264;26.940;2022-07-17T07:42:29;99299.97;;;33.46;34.05
40872;BME280;26591;43.264;26.940;2022-07-17T07:44:55;99291.31;;;33.85;34.57
40872;BME280;26591;43.264;26.940;2022-07-17T07:47:20;99291.66;;;33.60;33.65
40872;BME280;26591;43.264;26.940;2022-07-17T07:49:46;99298.38;;;33.77;33.86
40872;BME280;26591;43.264;26.940;2022-07-17T07:52:11;99301.78;;;34.14;34.07
40872;BME280;26591;43.264;26.940;2022-07-17T07:54:37;99297.53;;;34.48;33.63
40872;BME280;26591;43.264;26.940;2022-07-17T07:57:03;99301.06;;;33.68;33.79
40872;BME280;26591;43.264;26.940;2022-07-17T07:59:29;99299.94;;;33.38;34.43
40872;BME280;26591;43.264;26.940;2022-07-17T08:01:59;99299.34;;;33.27;34.50
40872;BME280;26591;43.264;26.940;2022-07-17T08:04:25;99297.81;;;32.98;35.08
40872;BME280;26591;43.264;26.940;2022-07-17T08:06:50;99299.13;;;33.69;34.45
40872;BME280;26591;43.264;26.940;2022-07-17T08:09:16;99296.75;;;33.44;35.33
40872;BME280;26591;43.264;26.940;2022-07-17T08:11:42;99306.78;;;33.81;35.25
40872;BME280;26591;43.264;26.940;2022-07-17T08:14:07;99303.75;;;33.59;35.00
40872;BME280;26591;43.264;26.940;2022-07-17T08:16:33;99303.16;;;33.03;35.52
40872;BME280;26591;43.264;26.940;2022-07-17T08:18:58;99304.75;;;32.67;35.47
40872;BME280;26591;43.264;26.940;2022-07-17T08:21:24;99319.50;;;32.44;36.18
40872;BME280;26591;43.264;26.940;2022-07-17T08:23:49;99310.84;;;32.78;35.49
40872;BME280;26591;43.264;26.940;2022-07-17T08:26:15;99304.78;;;33.04;36.39
40872;BME280;26591;43.264;26.940;2022-07-17T08:28:40;99312.56;;;32.88;36.07
40872;BME280;26591;43.264;26.940;2022-07-17T08:31:06;99320.03;;;32.96;35.57
40872;BME280;26591;43.264;26.940;2022-07-17T08:33:31;99325.66;;;32.91;35.33
40872;BME280;26591;43.264;26.940;2022-07-17T08:35:57;99323.94;;;33.18;34.99
40872;BME280;26591;43.264;26.940;2022-07-17T08:38:23;99326.53;;;33.60;35.09
40872;BME280;26591;43.264;26.940;2022-07-17T08:40:49;99321.16;;;33.86;34.51
40872;BME280;26591;43.264;26.940;2022-07-17T08:43:17;99322.72;;;34.01;33.36
40872;BME280;26591;43.264;26.940;2022-07-17T08:45:43;99328.47;;;34.22;33.44
40872;BME280;26591;43.264;26.940;2022-07-17T08:48:13;99317.28;;;33.87;33.03
40872;BME280;26591;43.264;26.940;2022-07-17T08:50:39;99327.94;;;34.12;33.39
40872;BME280;26591;43.264;26.940;2022-07-17T08:53:04;99314.63;;;33.96;33.60
40872;BME280;26591;43.264;26.940;2022-07-17T08:55:31;99316.13;;;33.48;34.95
40872;BME280;26591;43.264;26.940;2022-07-17T08:57:56;99315.56;;;33.60;34.16
40872;BME280;26591;43.264;26.940;2022-07-17T09:00:23;99318.28;;;33.37;34.76
40872;BME280;26591;43.264;26.940;2022-07-17T09:02:59;99315.03;;;32.62;35.28
40872;BME280;26591;43.264;26.940;2022-07-17T09:05:39;99311.66;;;31.95;36.60
40872;BME280;26591;43.264;26.940;2022-07-17T09:08:07;99314.78;;;31.55;36.70
40872;BME280;26591;43.264;26.940;2022-07-17T09:10:41;99317.03;;;31.53;36.50
40872;BME280;26591;43.264;26.940;2022-07-17T09:13:17;99324.78;;;32.12;36.55
40872;BME280;26591;43.264;26.940;2022-07-17T09:15:44;99315.38;;;32.97;34.94
40872;BME280;26591;43.264;26.940;2022-07-17T09:18:10;99315.41;;;33.20;34.61
40872;BME280;26591;43.264;26.940;2022-07-17T09:20:42;99318.41;;;32.45;35.25
40872;BME280;26591;43.264;26.940;2022-07-17T09:23:08;99320.06;;;31.85;35.63
40872;BME280;26591;43.264;26.940;2022-07-17T09:25:38;99315.53;;;31.28;36.47
40872;BME280;26591;43.264;26.940;2022-07-17T09:28:06;99322.38;;;31.25;37.05
40872;BME280;26591;43.264;26.940;2022-07-17T09:30:32;99315.16;;;31.48;36.13
40872;BME280;26591;43.264;26.940;2022-07-17T09:32:59;99312.81;;;31.61;37.07
40872;BME280;26591;43.264;26.940;2022-07-17T09:35:25;99311.38;;;32.24;35.68
40872;BME280;26591;43.264;26.940;2022-07-17T09:37:52;99309.94;;;32.83;34.79
40872;BME280;26591;43.264;26.940;2022-07-17T09:40:20;99308.34;;;33.05;34.27
40872;BME280;26591;43.264;26.940;2022-07-17T09:43:05;99309.72;;;32.65;34.80
40872;BME280;26591;43.264;26.940;2022-07-17T09:45:32;99304.56;;;32.78;34.92
40872;BME280;26591;43.264;26.940;2022-07-17T09:47:58;99306.84;;;32.48;33.96
40872;BME280;26591;43.264;26.940;2022-07-17T09:50:25;99302.75;;;32.59;34.70
40872;BME280;26591;43.264;26.940;2022-07-17T09:52:52;99299.03;;;32.92;34.50
40872;BME280;26591;43.264;26.940;2022-07-17T09:55:20;99307.72;;;32.57;35.26
40872;BME280;26591;43.264;26.940;2022-07-17T09:57:48;99301.84;;;32.22;35.13
40872;BME280;26591;43.264;26.940;2022-07-17T10:00:14;99305.56;;;31.84;35.84
40872;BME280;26591;43.264;26.940;2022-07-17T10:02:43;99307.03;;;32.23;34.56
40872;BME280;26591;43.264;26.940;2022-07-17T10:05:11;99303.22;;;32.89;33.63
40872;BME280;26591;43.264;26.940;2022-07-17T10:07:46;99300.25;;;32.99;32.70
40872;BME280;26591;43.264;26.940;2022-07-17T10:10:14;99297.91;;;33.07;32.91
40872;BME280;26591;43.264;26.940;2022-07-17T10:12:43;99296.78;;;32.57;33.06
40872;BME280;26591;43.264;26.940;2022-07-17T10:15:10;99305.81;;;32.30;33.07
40872;BME280;26591;43.264;26.940;2022-07-17T10:17:36;99296.75;;;32.85;32.02
40872;BME280;26591;43.264;26.940;2022-07-17T10:20:03;99300.13;;;32.54;32.97
40872;BME280;26591;43.264;26.940;2022-07-17T10:22:44;99305.91;;;32.38;33.49
40872;BME280;26591;43.264;26.940;2022-07-17T10:25:14;99290.97;;;32.72;33.11
40872;BME280;26591;43.264;26.940;2022-07-17T10:27:52;99296.28;;;33.51;31.61
40872;BME280;26591;43.264;26.940;2022-07-17T10:30:27;99287.00;;;33.92;31.31
40872;BME280;26591;43.264;26.940;2022-07-17T10:32:59;99290.69;;;34.28;30.46
40872;BME280;26591;43.264;26.940;2022-07-17T10:35:27;99279.69;;;33.88;29.62
40872;BME280;26591;43.264;26.940;2022-07-17T10:37:56;99282.31;;;33.93;29.46
40872;BME280;26591;43.264;26.940;2022-07-17T10:40:24;99286.78;;;33.12;30.03
40872;BME280;26591;43.264;26.940;2022-07-17T10:43:04;99281.22;;;33.03;30.20
40872;BME280;26591;43.264;26.940;2022-07-17T10:48:19;99293.47;;;32.32;30.85
40872;BME280;26591;43.264;26.940;2022-07-17T10:50:47;99275.38;;;32.59;30.90
40872;BME280;26591;43.264;26.940;2022-07-17T10:53:20;99287.44;;;33.09;31.00
40872;BME280;26591;43.264;26.940;2022-07-17T10:55:54;99275.38;;;32.59;29.50
40872;BME280;26591;43.264;26.940;2022-07-17T11:03:23;99288.31;;;33.18;29.66
40872;BME280;26591;43.264;26.940;2022-07-17T11:05:48;99280.31;;;33.53;28.13
40872;BME280;26591;43.264;26.940;2022-07-17T11:08:14;99282.41;;;33.79;27.35
40872;BME280;26591;43.264;26.940;2022-07-17T11:10:40;99282.50;;;33.97;27.39
40872;BME280;26591;43.264;26.940;2022-07-17T11:13:11;99275.47;;;34.22;27.60
40872;BME280;26591;43.264;26.940;2022-07-17T11:15:42;99273.03;;;33.48;27.56
40872;BME280;26591;43.264;26.940;2022-07-17T11:18:26;99271.38;;;33.70;28.06
40872;BME280;26591;43.264;26.940;2022-07-17T11:20:58;99266.53;;;34.07;27.08
40872;BME280;26591;43.264;26.940;2022-07-17T11:23:26;99277.66;;;34.43;27.64
40872;BME280;26591;43.264;26.940;2022-07-17T11:28:48;99271.47;;;34.37;27.25
40872;BME280;26591;43.264;26.940;2022-07-17T11:31:25;99263.84;;;34.25;27.23
40872;BME280;26591;43.264;26.940;2022-07-17T11:33:59;99260.56;;;34.05;27.55
40872;BME280;26591;43.264;26.940;2022-07-17T11:36:30;99262.16;;;33.66;28.33
40872;BME280;26591;43.264;26.940;2022-07-17T11:39:03;99268.50;;;33.21;29.54
40872;BME280;26591;43.264;26.940;2022-07-17T11:41:36;99263.06;;;33.30;29.73
40872;BME280;26591;43.264;26.940;2022-07-17T11:44:04;99261.28;;;32.89;29.82
40872;BME280;26591;43.264;26.940;2022-07-17T11:46:31;99259.75;;;33.42;28.28
40872;BME280;26591;43.264;26.940;2022-07-17T11:48:57;99261.28;;;33.34;29.28
40872;BME280;26591;43.264;26.940;2022-07-17T11:51:44;99266.31;;;33.09;28.45
40872;BME280;26591;43.264;26.940;2022-07-17T11:54:15;99260.34;;;33.61;28.72
40872;BME280;26591;43.264;26.940;2022-07-17T11:56:42;99260.28;;;34.16;27.58
40872;BME280;26591;43.264;26.940;2022-07-17T11:59:09;99257.03;;;34.14;27.83
40872;BME280;26591;43.264;26.940;2022-07-17T12:01:41;99246.63;;;34.68;26.96
40872;BME280;26591;43.264;26.940;2022-07-17T12:04:08;99249.53;;;34.63;27.45
40872;BME280;26591;43.264;26.940;2022-07-17T12:06:35;99251.81;;;34.88;27.31
40872;BME280;26591;43.264;26.940;2022-07-17T12:09:01;99246.81;;;34.55;27.06
40872;BME280;26591;43.264;26.940;2022-07-17T12:11:26;99240.81;;;34.52;27.45
40872;BME280;26591;43.264;26.940;2022-07-17T12:13:52;99236.72;;;34.23;26.38
40872;BME280;26591;43.264;26.940;2022-07-17T12:16:29;99234.47;;;33.85;26.01
40872;BME280;26591;43.264;26.940;2022-07-17T12:19:16;99244.78;;;33.80;27.49
40872;BME280;26591;43.264;26.940;2022-07-17T12:21:52;99236.22;;;34.21;27.04
40872;BME280;26591;43.264;26.940;2022-07-17T12:24:25;99238.03;;;34.35;26.78
40872;BME280;26591;43.264;26.940;2022-07-17T12:26:52;99239.22;;;33.93;27.16
40872;BME280;26591;43.264;26.940;2022-07-17T12:29:17;99238.03;;;33.86;27.45
40872;BME280;26591;43.264;26.940;2022-07-17T12:31:43;99237.13;;;33.59;26.93
40872;BME280;26591;43.264;26.940;2022-07-17T12:34:09;99242.53;;;33.82;27.31
40872;BME280;26591;43.264;26.940;2022-07-17T12:36:35;99239.31;;;33.48;26.67
40872;BME280;26591;43.264;26.940;2022-07-17T12:39:00;99235.06;;;32.96;26.87
40872;BME280;26591;43.264;26.940;2022-07-17T12:41:26;99244.69;;;33.08;27.19
40872;BME280;26591;43.264;26.940;2022-07-17T12:43:51;99234.56;;;32.94;28.05
40872;BME280;26591;43.264;26.940;2022-07-17T12:46:17;99232.38;;;32.46;27.54
40872;BME280;26591;43.264;26.940;2022-07-17T12:48:44;99234.88;;;32.56;27.77
40872;BME280;26591;43.264;26.940;2022-07-17T12:51:11;99230.28;;;32.65;28.63
40872;BME280;26591;43.264;26.940;2022-07-17T12:53:40;99227.00;;;32.40;27.84
40872;BME280;26591;43.264;26.940;2022-07-17T12:56:06;99223.47;;;32.40;27.20
40872;BME280;26591;43.264;26.940;2022-07-17T12:58:33;99229.22;;;32.89;27.48
40872;BME280;26591;43.264;26.940;2022-07-17T13:00:59;99225.63;;;32.66;27.11
40872;BME280;26591;43.264;26.940;2022-07-17T13:03:26;99226.50;;;32.24;27.68